createdAt,value
2022-08-14T18:10:56.225Z,24.77
2022-08-14T18:11:58.990Z,24.60
2022-08-14T18:13:05.551Z,24.62
2022-08-14T18:13:51.522Z,24.52
2022-08-14T18:16:31.217Z,24.43
2022-08-14T18:17:40.695Z,24.42
2022-08-14T18:18:43.186Z,24.30
2022-08-14T18:19:41.674Z,24.34
2022-08-14T18:21:42.214Z,24.21
2022-08-14T18:22:56.667Z,24.10
2022-08-14T18:24:29.335Z,24.02
2022-08-14T18:25:19.240Z,23.88
2022-08-14T18:26:35.908Z,23.88
2022-08-14T18:28:16.089Z,23.63
2022-08-14T18:29:14.789Z,23.50
2022-08-14T18:31:42.221Z,23.35
2022-08-14T18:32:47.439Z,23.32
2022-08-14T18:35:11.124Z,23.15
2022-08-14T18:36:46.670Z,23.10
2022-08-14T18:38:25.192Z,22.97
2022-08-14T18:39:34.362Z,22.83
2022-08-14T18:40:34.927Z,22.86
2022-08-14T18:41:21.102Z,22.75
2022-08-14T18:43:32.246Z,22.75
2022-08-14T18:44:32.174Z,22.60
2022-08-14T18:45:32.125Z,22.65
2022-08-14T18:46:59.808Z,22.60
2022-08-14T18:48:33.269Z,22.42
2022-08-14T18:49:33.450Z,22.40
2022-08-14T18:50:31.958Z,22.36
2022-08-14T18:51:45.518Z,22.33
2022-08-14T18:52:34.302Z,22.21
2022-08-14T18:53:34.387Z,22.21
2022-08-14T18:54:34.389Z,22.20
2022-08-14T18:55:31.913Z,22.09
2022-08-14T18:56:33.798Z,22.15
2022-08-14T18:57:40.263Z,22.06
2022-08-14T18:58:34.057Z,21.96
2022-08-14T18:59:42.366Z,21.91
2022-08-14T19:00:32.937Z,21.94
2022-08-14T19:01:32.071Z,21.91
2022-08-14T19:02:31.905Z,21.75
2022-08-14T19:03:32.031Z,21.75
2022-08-14T19:04:32.370Z,21.59
2022-08-14T19:05:47.644Z,21.64
2022-08-14T19:06:41.418Z,21.65
2022-08-14T19:07:48.062Z,21.56
2022-08-14T19:11:12.131Z,21.43
2022-08-14T19:13:44.507Z,21.27
2022-08-14T19:16:59.945Z,21.14
2022-08-14T19:18:13.864Z,21.14
2022-08-14T19:19:15.537Z,21.14
2022-08-14T19:21:14.403Z,20.99
2022-08-14T19:22:20.476Z,20.92
2022-08-14T19:23:12.384Z,20.91
2022-08-14T19:24:30.654Z,20.89
2022-08-14T19:26:51.981Z,20.89
2022-08-14T19:28:59.111Z,20.84
2022-08-14T19:29:59.068Z,20.77
2022-08-14T19:33:38.546Z,20.77
2022-08-14T19:35:55.939Z,20.74
2022-08-14T19:37:05.223Z,20.57
2022-08-14T19:37:41.423Z,20.55
2022-08-14T19:38:39.831Z,20.47
2022-08-14T19:39:53.468Z,20.39
2022-08-14T19:40:52.071Z,20.42
2022-08-14T19:42:54.502Z,20.39
2022-08-14T19:44:00.395Z,20.28
2022-08-14T19:44:53.044Z,20.32
2022-08-14T19:50:47.699Z,20.17
2022-08-14T19:57:37.910Z,19.88
2022-08-14T20:01:43.358Z,19.62
2022-08-14T20:05:42.953Z,19.59
2022-08-14T20:09:05.597Z,19.50
2022-08-14T20:13:53.954Z,19.37
2022-08-14T20:15:12.977Z,19.31
2022-08-14T20:16:02.684Z,19.32
2022-08-14T20:18:49.210Z,19.33
2022-08-14T20:19:17.722Z,19.28
2022-08-14T20:20:09.219Z,19.25
2022-08-14T20:21:09.211Z,19.32
2022-08-14T20:22:34.963Z,19.26
2022-08-14T20:23:19.793Z,19.41
2022-08-14T20:24:31.104Z,19.26
2022-08-14T20:25:19.324Z,19.26
2022-08-14T20:26:10.387Z,19.25
2022-08-14T20:27:20.296Z,19.16
2022-08-14T20:28:29.407Z,19.16
2022-08-14T20:29:10.321Z,19.13
2022-08-14T20:31:10.990Z,19.14
2022-08-14T20:32:15.642Z,19.13
2022-08-14T20:33:17.852Z,19.00
2022-08-14T20:34:35.401Z,19.07
2022-08-14T20:35:10.880Z,18.98
2022-08-14T20:36:26.483Z,18.92
2022-08-14T20:38:28.710Z,18.85
2022-08-14T20:41:36.844Z,18.95
2022-08-14T20:42:52.812Z,18.85
2022-08-14T20:43:35.963Z,18.81
2022-08-14T20:44:38.061Z,18.88
2022-08-14T20:45:45.486Z,18.75
2022-08-14T20:46:38.863Z,18.81
2022-08-14T20:47:50.507Z,18.72
2022-08-14T20:48:51.059Z,18.67
2022-08-14T20:51:01.693Z,18.66
2022-08-14T20:52:05.042Z,18.73
2022-08-14T20:53:06.127Z,18.62
2022-08-14T20:54:01.735Z,18.63
2022-08-14T20:55:01.782Z,18.66
2022-08-14T20:56:04.479Z,18.65
2022-08-14T20:57:02.583Z,18.54
2022-08-14T20:58:01.548Z,18.54
2022-08-14T20:59:15.556Z,18.50
2022-08-14T21:00:01.565Z,18.55
2022-08-14T21:01:13.708Z,18.52
2022-08-14T21:02:02.647Z,18.47
2022-08-14T21:03:01.664Z,18.47
2022-08-14T21:04:01.477Z,18.48
2022-08-14T21:05:01.394Z,18.42
2022-08-14T21:06:19.303Z,18.37
2022-08-14T21:07:24.794Z,18.32
2022-08-14T21:08:25.813Z,18.32
2022-08-14T21:09:01.564Z,18.32
2022-08-14T21:10:06.533Z,18.29
2022-08-14T21:11:02.378Z,18.23
2022-08-14T21:12:03.409Z,18.15
2022-08-14T21:14:18.688Z,18.18
2022-08-14T21:14:26.473Z,18.11
2022-08-14T21:15:02.288Z,18.25
2022-08-14T21:16:01.271Z,18.17
2022-08-14T21:17:02.287Z,18.15
2022-08-14T21:18:01.266Z,18.15
2022-08-14T21:19:01.977Z,18.12
2022-08-14T21:20:26.461Z,18.15
2022-08-14T21:21:01.348Z,18.18
2022-08-14T21:22:01.837Z,18.12
2022-08-14T21:23:01.767Z,18.17
2022-08-14T21:24:01.213Z,18.11
2022-08-14T21:25:07.474Z,18.05
2022-08-14T21:27:22.671Z,17.95
2022-08-14T21:29:53.816Z,17.99
2022-08-14T21:30:52.156Z,17.86
2022-08-14T21:32:59.845Z,17.95
2022-08-14T21:35:56.595Z,17.84
2022-08-14T21:37:14.184Z,17.72
2022-08-14T21:37:56.971Z,17.75
2022-08-14T21:38:56.711Z,17.75
2022-08-14T21:40:18.668Z,17.77
2022-08-14T21:42:37.254Z,17.77
2022-08-14T21:43:41.033Z,17.75
2022-08-14T21:44:50.857Z,17.70
2022-08-14T21:45:45.628Z,17.64
2022-08-14T21:46:51.370Z,17.64
2022-08-14T21:47:48.466Z,17.70
2022-08-14T21:48:45.857Z,17.70
2022-08-14T21:51:59.933Z,17.66
2022-08-14T21:53:00.790Z,17.58
2022-08-14T21:54:04.304Z,17.52
2022-08-14T21:55:10.198Z,17.46
2022-08-14T21:58:52.713Z,17.51
2022-08-14T21:59:32.119Z,17.46
2022-08-14T22:00:36.495Z,17.43
2022-08-14T22:02:00.773Z,17.38
2022-08-14T22:02:43.701Z,17.46
2022-08-14T22:03:35.557Z,17.44
2022-08-14T22:04:33.817Z,17.43
2022-08-14T22:05:43.688Z,17.40
2022-08-14T22:06:42.811Z,17.46
2022-08-14T22:07:42.497Z,17.28
2022-08-14T22:08:45.798Z,17.28
2022-08-14T22:09:44.081Z,17.31
2022-08-14T22:10:42.476Z,17.30
2022-08-14T22:14:26.179Z,17.21
2022-08-14T22:15:49.357Z,17.16
2022-08-14T22:17:00.576Z,17.22
2022-08-14T22:17:32.291Z,17.18
2022-08-14T22:18:33.662Z,17.15
2022-08-14T22:19:43.118Z,17.08
2022-08-14T22:20:29.052Z,17.15
2022-08-14T22:21:30.161Z,17.14
2022-08-14T22:23:43.598Z,17.19
2022-08-14T22:26:30.531Z,17.15
2022-08-14T22:28:44.886Z,17.06
2022-08-14T22:29:59.330Z,17.03
2022-08-14T22:30:42.827Z,16.98
2022-08-14T22:31:43.904Z,17.01
2022-08-14T22:32:56.653Z,16.98
2022-08-14T22:33:59.405Z,16.97
2022-08-14T22:34:45.731Z,17.01
2022-08-14T22:37:08.863Z,17.01
2022-08-14T22:38:36.341Z,16.94
2022-08-14T22:39:15.578Z,16.93
2022-08-14T22:41:01.343Z,16.94
2022-08-14T22:41:31.577Z,16.97
2022-08-14T22:42:21.571Z,16.89
2022-08-14T22:43:26.982Z,17.01
2022-08-14T22:44:08.478Z,16.96
2022-08-14T22:45:18.922Z,16.96
2022-08-14T22:46:27.139Z,17.01
2022-08-14T22:47:07.624Z,16.98
2022-08-14T22:51:13.538Z,17.03
2022-08-14T22:52:32.655Z,16.98
2022-08-14T22:54:53.114Z,16.98
2022-08-14T22:55:27.454Z,17.01
2022-08-14T22:56:49.589Z,16.91
2022-08-14T22:58:47.170Z,16.97
2022-08-14T23:00:25.444Z,16.91
2022-08-14T23:00:48.801Z,16.83
2022-08-14T23:01:56.108Z,16.91
2022-08-14T23:03:01.488Z,16.88
2022-08-14T23:03:48.133Z,16.94
2022-08-14T23:05:03.182Z,16.94
2022-08-14T23:05:56.832Z,16.85
2022-08-14T23:08:57.860Z,16.86
2022-08-14T23:09:41.208Z,16.79
2022-08-14T23:10:36.158Z,16.81
2022-08-14T23:11:39.473Z,16.79
2022-08-14T23:12:28.407Z,16.82
2022-08-14T23:13:25.316Z,16.86
2022-08-14T23:14:26.815Z,16.85
2022-08-14T23:15:24.871Z,16.75
2022-08-14T23:20:51.563Z,16.73
2022-08-14T23:22:03.817Z,16.73
2022-08-14T23:23:22.932Z,16.60
2022-08-14T23:24:03.977Z,16.58
2022-08-14T23:24:51.655Z,16.67
2022-08-14T23:28:34.846Z,16.71
2022-08-14T23:29:36.355Z,16.60
2022-08-14T23:30:31.458Z,16.66
2022-08-14T23:32:36.902Z,16.60
2022-08-14T23:33:36.872Z,16.60
2022-08-14T23:34:51.573Z,16.48
2022-08-14T23:37:06.097Z,16.43
2022-08-14T23:38:05.625Z,16.48
2022-08-14T23:39:19.473Z,16.42
2022-08-14T23:40:29.739Z,16.45
2022-08-14T23:41:19.715Z,16.43
2022-08-14T23:47:26.231Z,16.38
2022-08-14T23:48:36.137Z,16.21
2022-08-14T23:49:21.222Z,16.23
2022-08-14T23:50:38.113Z,16.28
2022-08-14T23:52:50.626Z,16.31
2022-08-14T23:53:54.082Z,16.34
2022-08-14T23:54:48.563Z,16.30
2022-08-14T23:55:57.427Z,16.31
2022-08-14T23:57:02.337Z,16.21
2022-08-14T23:58:01.816Z,16.21
2022-08-14T23:58:55.172Z,16.23
2022-08-14T23:59:54.373Z,16.20
